Time;durP1;ratioP1;P1;durP2;ratioP2;P2;SDS_P1;SDS_P2;PMS_P1;PMS_P2;Temp;Humidity;BMP_temperature;BMP_pressure;BME280_temperature;BME280_humidity;BME280_pressure;Samples;Min_cycle;Max_cycle;Signal;HPM_P1;HPM_P2
2022/10/14 00:00:40;;;;;;;26.70;16.10;;;12.20;99.90;;;;;;5056360;28;20037;-69
2022/10/14 00:03:05;;;;;;;135.65;17.50;;;12.20;99.90;;;;;;5058619;28;20052;-69
2022/10/14 00:05:31;;;;;;;41.13;14.30;;;12.20;99.90;;;;;;5057584;28;20425;-70
2022/10/14 00:07:58;;;;;;;66.53;14.85;;;12.20;99.90;;;;;;5061039;28;20116;-70
2022/10/14 00:10:23;;;;;;;19.15;13.95;;;12.10;99.90;;;;;;5057397;28;20037;-70
2022/10/14 00:12:49;;;;;;;147.98;17.55;;;12.10;99.90;;;;;;5057286;28;20052;-70
2022/10/14 00:15:16;;;;;;;25.77;15.38;;;12.10;99.90;;;;;;5059134;28;20029;-70
2022/10/14 00:17:45;;;;;;;18.65;14.90;;;12.10;99.90;;;;;;5064593;28;20036;-70
2022/10/14 00:20:10;;;;;;;22.73;15.30;;;12.10;99.90;;;;;;5059452;28;20112;-70
2022/10/14 00:22:36;;;;;;;38.20;14.93;;;12.00;99.90;;;;;;5059605;28;20123;-70
2022/10/14 00:25:02;;;;;;;47.17;15.48;;;12.00;99.90;;;;;;5063206;28;20033;-71
2022/10/14 00:27:28;;;;;;;23.25;16.20;;;12.00;99.90;;;;;;5059242;28;20047;-68
2022/10/14 00:29:53;;;;;;;21.35;15.98;;;12.00;99.90;;;;;;5056195;28;20406;-68
2022/10/14 00:32:19;;;;;;;58.88;17.67;;;12.00;99.90;;;;;;5059998;28;20045;-68
2022/10/14 00:34:45;;;;;;;55.25;16.60;;;12.00;99.90;;;;;;5056617;28;20471;-69
2022/10/14 00:37:10;;;;;;;116.50;16.55;;;12.00;99.90;;;;;;5050717;28;20033;-68
2022/10/14 00:39:36;;;;;;;20.38;14.80;;;11.90;99.90;;;;;;5052834;28;20127;-69
2022/10/14 00:42:02;;;;;;;32.78;15.27;;;11.90;99.90;;;;;;5059429;28;20049;-70
2022/10/14 00:44:28;;;;;;;20.10;14.43;;;12.00;99.90;;;;;;5064810;28;20044;-70
2022/10/14 00:46:54;;;;;;;46.05;14.57;;;11.90;99.90;;;;;;5055830;28;20530;-70
2022/10/14 00:49:30;;;;;;;40.33;15.07;;;11.90;99.90;;;;;;5055291;28;20056;-70
2022/10/14 00:52:12;;;;;;;67.07;15.18;;;11.80;99.90;;;;;;5062783;28;20123;-70
2022/10/14 00:54:45;;;;;;;30.50;16.13;;;11.80;99.90;;;;;;5051576;28;20045;-70
2022/10/14 00:57:11;;;;;;;82.07;15.30;;;11.80;99.90;;;;;;5070910;28;20052;-70
2022/10/14 00:59:38;;;;;;;22.73;15.07;;;11.80;99.90;;;;;;5063347;28;20102;-70
2022/10/14 01:02:04;;;;;;;20.10;14.45;;;12.00;99.90;;;;;;5055196;28;20045;-69
2022/10/14 01:04:30;;;;;;;85.63;15.93;;;11.80;99.90;;;;;;5052227;28;20036;-69
2022/10/14 01:07:13;;;;;;;90.28;14.48;;;11.80;99.90;;;;;;5052243;28;20059;-69
2022/10/14 01:09:50;;;;;;;178.10;15.77;;;11.70;99.90;;;;;;5045173;28;20090;-69
2022/10/14 01:12:21;;;;;;;28.02;12.95;;;11.70;99.90;;;;;;5053395;28;20045;-69
2022/10/14 01:14:50;;;;;;;;;;;11.70;99.90;;;;;;5055311;28;20406;-69
2022/10/14 01:17:18;;;;;;;58.13;13.02;;;11.70;99.90;;;;;;5057990;28;19920;-69
2022/10/14 01:20:03;;;;;;;103.13;13.88;;;11.70;99.90;;;;;;5056140;28;20048;-69
2022/10/14 01:22:42;;;;;;;27.70;12.95;;;11.70;99.90;;;;;;5057069;28;20057;-69
2022/10/14 01:25:27;;;;;;;18.27;13.27;;;11.70;99.90;;;;;;5052411;28;20049;-69
2022/10/14 01:28:12;;;;;;;36.53;12.05;;;11.60;99.90;;;;;;5054156;28;20075;-69
2022/10/14 01:30:44;;;;;;;44.47;11.98;;;11.60;99.90;;;;;;5046775;28;20048;-69
2022/10/14 01:33:23;;;;;;;21.98;11.45;;;11.70;99.90;;;;;;5055368;28;20063;-69
2022/10/14 01:36:30;;;;;;;43.88;10.77;;;11.60;99.90;;;;;;5057415;28;20117;-69
2022/10/14 01:39:10;;;;;;;14.57;10.77;;;11.60;99.90;;;;;;5058552;28;20045;-69
2022/10/14 01:41:44;;;;;;;15.85;11.20;;;11.60;99.90;;;;;;5045561;28;20750;-69
2022/10/14 01:44:12;;;;;;;39.40;10.63;;;11.60;99.90;;;;;;5037911;28;20053;-69
2022/10/14 01:46:42;;;;;;;63.78;10.75;;;11.60;99.90;;;;;;5036697;28;20051;-72
2022/10/14 01:49:13;;;;;;;78.00;10.13;;;11.50;99.90;;;;;;5053927;28;20409;-70
2022/10/14 01:51:51;;;;;;;75.50;9.60;;;11.50;99.90;;;;;;5060314;28;20080;-70
2022/10/14 01:54:22;;;;;;;116.38;11.25;;;11.50;99.90;;;;;;5051225;28;20063;-70
2022/10/14 01:56:49;;;;;;;16.00;8.90;;;11.40;99.90;;;;;;5056045;28;20068;-70
2022/10/14 01:59:18;;;;;;;22.38;9.27;;;11.40;99.90;;;;;;5040401;28;20102;-70
2022/10/14 02:01:44;;;;;;;18.75;9.48;;;11.40;99.90;;;;;;5060443;28;20512;-70
2022/10/14 02:04:18;;;;;;;12.90;9.75;;;11.40;99.90;;;;;;5056924;28;20037;-70
2022/10/14 02:07:08;;;;;;;24.33;9.25;;;11.40;99.90;;;;;;5056377;28;20124;-70
2022/10/14 02:09:55;;;;;;;12.27;9.10;;;11.40;99.90;;;;;;5062146;28;20576;-70
2022/10/14 02:12:35;;;;;;;11.57;9.20;;;11.40;99.90;;;;;;5036082;28;20049;-70
2022/10/14 02:15:31;;;;;;;63.20;10.25;;;11.40;99.90;;;;;;5072142;28;20090;-70
2022/10/14 02:18:27;;;;;;;18.38;8.65;;;11.30;99.90;;;;;;5059737;28;20052;-70
2022/10/14 02:21:21;;;;;;;39.30;8.88;;;11.40;99.90;;;;;;5055024;28;20458;-70
2022/10/14 02:24:20;;;;;;;13.60;8.60;;;11.40;99.90;;;;;;5057079;28;20068;-70
2022/10/14 02:26:49;;;;;;;39.03;8.73;;;11.30;99.90;;;;;;5092536;28;20262;-70
2022/10/14 02:29:17;;;;;;;15.57;8.02;;;11.30;99.90;;;;;;5053991;28;20044;-70
2022/10/14 02:31:45;;;;;;;58.67;8.15;;;11.30;99.90;;;;;;5058526;28;20040;-70
2022/10/14 02:34:15;;;;;;;44.95;7.88;;;11.30;99.90;;;;;;5056463;28;20040;-70
2022/10/14 02:36:43;;;;;;;108.10;8.68;;;11.30;99.90;;;;;;5069794;28;20040;-69
2022/10/14 02:39:14;;;;;;;9.32;6.53;;;11.20;99.90;;;;;;5052725;28;20053;-70
2022/10/14 02:41:40;;;;;;;12.20;6.95;;;11.20;99.90;;;;;;5058430;28;20123;-70
2022/10/14 02:44:06;;;;;;;107.90;8.77;;;11.10;99.90;;;;;;5049183;28;20051;-70
2022/10/14 02:46:34;;;;;;;17.08;7.22;;;11.20;99.90;;;;;;5056366;28;20482;-69
2022/10/14 02:49:00;;;;;;;16.42;6.88;;;11.10;99.90;;;;;;5059375;28;20767;-70
2022/10/14 02:51:26;;;;;;;41.33;7.40;;;11.10;99.90;;;;;;5033163;28;20039;-70
2022/10/14 02:53:51;;;;;;;13.60;6.85;;;11.10;99.90;;;;;;5057404;28;20041;-70
2022/10/14 02:56:17;;;;;;;38.85;7.30;;;11.10;99.90;;;;;;5060712;28;21777;-69
2022/10/14 02:58:43;;;;;;;89.05;9.48;;;11.10;99.90;;;;;;5055384;28;20515;-71
2022/10/14 03:01:09;;;;;;;67.20;8.73;;;11.10;99.90;;;;;;5045927;28;20041;-69
2022/10/14 03:03:35;;;;;;;33.53;8.70;;;11.00;99.90;;;;;;5029320;28;20044;-70
2022/10/14 03:06:01;;;;;;;21.92;8.23;;;11.00;99.90;;;;;;5050666;28;20128;-69
2022/10/14 03:08:27;;;;;;;34.28;8.57;;;11.00;99.90;;;;;;5055136;28;20200;-70
2022/10/14 03:10:53;;;;;;;145.55;12.90;;;11.00;99.90;;;;;;5049252;28;20048;-69
2022/10/14 03:13:19;;;;;;;35.67;9.25;;;11.00;99.90;;;;;;5047800;28;20783;-70
2022/10/14 03:15:48;;;;;;;25.92;9.25;;;11.00;99.90;;;;;;5051204;28;20040;-69
2022/10/14 03:18:13;;;;;;;85.43;9.35;;;11.00;99.90;;;;;;5048426;28;20045;-71
2022/10/14 03:20:39;;;;;;;17.77;9.60;;;10.90;99.90;;;;;;5048136;28;20082;-70
2022/10/14 03:23:05;;;;;;;76.57;9.25;;;11.00;99.90;;;;;;5043932;28;20051;-70
2022/10/14 03:25:31;;;;;;;17.00;7.80;;;10.90;99.90;;;;;;5053782;28;20041;-70
2022/10/14 03:27:56;;;;;;;45.42;8.52;;;10.90;99.90;;;;;;5051622;28;20056;-70
2022/10/14 03:30:22;;;;;;;12.15;7.90;;;10.90;99.90;;;;;;5053385;28;20499;-70
2022/10/14 03:32:48;;;;;;;33.78;9.38;;;10.90;99.90;;;;;;5056111;28;20040;-70
2022/10/14 03:35:14;;;;;;;41.33;8.90;;;10.90;99.90;;;;;;5050201;28;20102;-70
2022/10/14 03:37:40;;;;;;;34.30;8.63;;;10.90;99.90;;;;;;5057013;28;20044;-70
2022/10/14 03:40:06;;;;;;;79.32;10.13;;;10.80;99.90;;;;;;5048247;28;20048;-70
2022/10/14 03:42:32;;;;;;;10.88;8.27;;;10.80;99.90;;;;;;5057075;28;20036;-70
2022/10/14 03:44:58;;;;;;;69.68;10.43;;;10.80;99.90;;;;;;5052462;28;20047;-70
2022/10/14 03:47:23;;;;;;;97.00;10.75;;;10.80;99.90;;;;;;5042499;28;20055;-70
2022/10/14 03:49:49;;;;;;;21.58;9.77;;;10.90;99.90;;;;;;5060914;28;20116;-70
2022/10/14 03:52:15;;;;;;;77.53;10.90;;;10.80;99.90;;;;;;5065830;28;20029;-70
2022/10/14 03:54:40;;;;;;;38.72;11.15;;;10.80;99.90;;;;;;5063890;28;20090;-70
2022/10/14 03:57:06;;;;;;;129.35;11.98;;;10.80;99.90;;;;;;5067911;28;20419;-70
2022/10/14 03:59:32;;;;;;;40.15;9.57;;;10.80;99.90;;;;;;5067296;28;20036;-70
2022/10/14 04:01:58;;;;;;;18.65;9.15;;;10.80;99.90;;;;;;5067776;28;20032;-70
2022/10/14 04:04:23;;;;;;;12.65;8.80;;;10.70;99.90;;;;;;5066160;28;20076;-70
2022/10/14 04:06:49;;;;;;;47.03;9.98;;;10.70;99.90;;;;;;5049816;28;20052;-70
2022/10/14 04:09:15;;;;;;;76.22;10.07;;;10.70;99.90;;;;;;5068952;28;20041;-70
2022/10/14 04:11:41;;;;;;;35.15;9.55;;;10.70;99.90;;;;;;5065729;28;20131;-69
2022/10/14 04:14:07;;;;;;;38.88;9.15;;;10.70;99.90;;;;;;5070108;28;20093;-70
2022/10/14 04:16:32;;;;;;;36.17;8.43;;;10.60;99.90;;;;;;5068186;28;20044;-71
2022/10/14 04:18:58;;;;;;;14.85;7.03;;;10.60;99.90;;;;;;5060762;28;20048;-70
2022/10/14 04:21:24;;;;;;;55.80;8.45;;;10.60;99.90;;;;;;5046144;28;20075;-70
2022/10/14 04:23:50;;;;;;;32.00;7.63;;;10.50;99.90;;;;;;5069474;28;20055;-69
2022/10/14 04:26:16;;;;;;;15.77;9.15;;;10.50;99.90;;;;;;5061623;28;20052;-70
2022/10/14 04:28:43;;;;;;;15.60;8.07;;;10.50;99.90;;;;;;5067317;28;20481;-70
2022/10/14 04:31:09;;;;;;;41.13;7.43;;;10.50;99.90;;;;;;5068218;28;20064;-69
2022/10/14 04:33:35;;;;;;;59.92;8.38;;;10.50;99.90;;;;;;5062063;28;20079;-70
2022/10/14 04:36:04;;;;;;;33.97;8.90;;;10.40;99.90;;;;;;5066636;28;20509;-70
2022/10/14 04:38:30;;;;;;;20.38;9.27;;;10.40;99.90;;;;;;5067233;28;20036;-69
2022/10/14 04:40:56;;;;;;;19.75;9.25;;;10.40;99.90;;;;;;5066789;28;20067;-70
2022/10/14 04:43:22;;;;;;;27.70;9.75;;;10.40;99.90;;;;;;5067534;28;20044;-70
2022/10/14 04:45:48;;;;;;;97.53;10.98;;;10.50;99.90;;;;;;5066716;28;20045;-70
2022/10/14 04:48:14;;;;;;;29.27;9.50;;;10.50;99.90;;;;;;5067012;28;20052;-70
2022/10/14 04:50:40;;;;;;;34.78;9.40;;;10.50;99.90;;;;;;5067087;28;20115;-70
2022/10/14 04:53:06;;;;;;;114.05;11.70;;;10.50;99.90;;;;;;5067631;28;20424;-70
2022/10/14 04:55:32;;;;;;;19.13;8.43;;;10.40;99.90;;;;;;5066384;28;20059;-70
2022/10/14 04:57:58;;;;;;;32.30;9.52;;;10.40;99.90;;;;;;5063354;28;20040;-70
2022/10/14 05:00:24;;;;;;;34.80;9.25;;;10.40;99.90;;;;;;5064015;28;20040;-70
2022/10/14 05:02:49;;;;;;;101.40;12.40;;;10.50;99.90;;;;;;5054016;28;20045;-70
2022/10/14 05:05:15;;;;;;;67.43;11.43;;;10.50;99.90;;;;;;5055474;28;20047;-70
2022/10/14 05:07:41;;;;;;;115.07;13.43;;;10.50;99.90;;;;;;5062364;28;20564;-72
2022/10/14 05:10:11;;;;;;;134.65;13.77;;;10.40;99.90;;;;;;5059937;28;20037;-70
2022/10/14 05:12:38;;;;;;;35.92;11.13;;;10.40;99.90;;;;;;5051108;28;20037;-70
2022/10/14 05:15:05;;;;;;;21.10;11.63;;;10.40;99.90;;;;;;5060802;28;20048;-70
2022/10/14 05:17:32;;;;;;;36.47;12.07;;;10.40;99.90;;;;;;5058864;28;20094;-70
2022/10/14 05:19:57;;;;;;;52.65;11.25;;;10.60;99.90;;;;;;5047415;28;20055;-70
2022/10/14 05:22:24;;;;;;;26.13;10.68;;;10.40;99.90;;;;;;5048663;28;20048;-70
2022/10/14 05:24:50;;;;;;;40.33;11.30;;;10.40;99.90;;;;;;5045896;28;20657;-70
2022/10/14 05:27:16;;;;;;;26.00;11.13;;;10.40;99.90;;;;;;5037513;28;20060;-70
2022/10/14 05:29:44;;;;;;;26.90;11.02;;;10.40;99.90;;;;;;5029911;28;20045;-70
2022/10/14 05:32:10;;;;;;;73.18;11.05;;;10.40;99.90;;;;;;5052411;28;20571;-70
2022/10/14 05:34:36;;;;;;;84.38;11.75;;;10.40;99.90;;;;;;5074267;28;20076;-70
2022/10/14 05:37:02;;;;;;;48.97;11.38;;;10.40;99.90;;;;;;5045982;28;20045;-71
2022/10/14 05:39:28;;;;;;;38.30;11.05;;;10.30;99.90;;;;;;5052851;28;20513;-70
2022/10/14 05:41:53;;;;;;;53.30;10.98;;;10.30;99.90;;;;;;5059940;28;20483;-70
2022/10/14 05:44:19;;;;;;;66.50;10.65;;;10.30;99.90;;;;;;5050421;28;20572;-70
2022/10/14 05:46:45;;;;;;;54.10;10.20;;;10.40;99.90;;;;;;5049493;28;20055;-71
2022/10/14 05:49:11;;;;;;;80.53;10.85;;;10.30;99.90;;;;;;5044462;28;20425;-70
2022/10/14 05:51:37;;;;;;;79.07;11.18;;;10.30;99.90;;;;;;5052288;28;20045;-71
2022/10/14 05:54:03;;;;;;;74.72;10.40;;;10.20;99.90;;;;;;5051140;28;20048;-70
2022/10/14 05:56:29;;;;;;;19.58;10.07;;;10.30;99.90;;;;;;5034208;28;20453;-71
2022/10/14 05:58:55;;;;;;;37.83;9.88;;;10.30;99.90;;;;;;5049342;28;20048;-70
2022/10/14 06:01:21;;;;;;;21.23;9.23;;;10.30;99.90;;;;;;5052522;28;20132;-70
2022/10/14 06:03:52;;;;;;;37.35;9.60;;;10.30;99.90;;;;;;5051430;28;20060;-70
2022/10/14 06:06:18;;;;;;;57.17;10.18;;;10.30;99.90;;;;;;5054634;28;21509;-70
2022/10/14 06:08:45;;;;;;;79.03;11.48;;;10.30;99.90;;;;;;5056920;28;20082;-70
2022/10/14 06:11:11;;;;;;;31.70;9.90;;;10.30;99.90;;;;;;5036817;28;20093;-70
2022/10/14 06:13:37;;;;;;;19.40;10.23;;;10.20;99.90;;;;;;5049266;28;20045;-70
2022/10/14 06:16:08;;;;;;;94.75;11.73;;;10.30;99.90;;;;;;5056032;28;20055;-70
2022/10/14 06:18:35;;;;;;;114.60;12.10;;;10.30;99.90;;;;;;5036853;28;20056;-70
2022/10/14 06:21:01;;;;;;;31.42;11.52;;;10.30;99.90;;;;;;5054124;28;20033;-70
2022/10/14 06:23:27;;;;;;;25.95;11.85;;;10.30;99.90;;;;;;5043427;28;20051;-70
2022/10/14 06:25:52;;;;;;;115.07;14.25;;;10.30;99.90;;;;;;5044077;28;20060;-71
2022/10/14 06:28:19;;;;;;;75.03;13.55;;;10.30;99.90;;;;;;5052689;28;20052;-69
2022/10/14 06:30:52;;;;;;;57.42;13.00;;;10.30;99.90;;;;;;5054957;28;20047;-70
2022/10/14 06:33:18;;;;;;;96.47;14.75;;;10.30;99.90;;;;;;5054574;28;20071;-70
2022/10/14 06:35:44;;;;;;;39.00;12.63;;;10.30;99.90;;;;;;5056399;28;20076;-70
2022/10/14 06:38:10;;;;;;;81.97;13.88;;;10.30;99.90;;;;;;5057495;28;20864;-70
2022/10/14 06:40:36;;;;;;;42.50;11.98;;;10.40;99.90;;;;;;5051935;28;20078;-69
2022/10/14 06:43:02;;;;;;;30.40;12.07;;;10.30;99.90;;;;;;5057482;28;20033;-69
2022/10/14 06:45:28;;;;;;;76.03;13.55;;;10.40;99.90;;;;;;5055583;28;20045;-70
2022/10/14 06:47:53;;;;;;;37.88;13.35;;;10.40;99.90;;;;;;5045424;28;20567;-70
2022/10/14 06:50:19;;;;;;;56.45;13.63;;;10.40;99.90;;;;;;5048745;28;20037;-69
2022/10/14 06:52:45;;;;;;;59.88;14.10;;;10.40;99.90;;;;;;5056624;28;20513;-69
2022/10/14 06:55:12;;;;;;;47.53;14.10;;;10.40;99.90;;;;;;5033452;28;20649;-70
2022/10/14 06:57:38;;;;;;;53.28;14.70;;;10.40;99.90;;;;;;5086479;28;20477;-70
2022/10/14 07:00:05;;;;;;;77.90;16.40;;;10.50;99.90;;;;;;5052311;28;20068;-69
2022/10/14 07:02:31;;;;;;;81.32;17.02;;;10.50;99.90;;;;;;5050162;28;20071;-70
2022/10/14 07:04:57;;;;;;;49.25;16.23;;;10.50;99.90;;;;;;5057145;28;20781;-70
2022/10/14 07:07:23;;;;;;;79.35;16.77;;;10.50;99.90;;;;;;5036452;28;20343;-70
2022/10/14 07:09:49;;;;;;;59.10;17.13;;;10.50;99.90;;;;;;5053102;28;20573;-70
2022/10/14 07:12:15;;;;;;;198.63;21.90;;;10.50;99.90;;;;;;5050496;28;20121;-70
2022/10/14 07:14:41;;;;;;;95.75;17.98;;;10.50;99.90;;;;;;5055669;28;20541;-70
2022/10/14 07:17:07;;;;;;;152.10;22.45;;;10.50;99.90;;;;;;5054564;28;20552;-70
2022/10/14 07:19:33;;;;;;;43.38;18.50;;;10.60;99.90;;;;;;5056719;28;20500;-69
2022/10/14 07:21:59;;;;;;;43.83;17.63;;;10.60;99.90;;;;;;5081529;28;20045;-69
2022/10/14 07:24:25;;;;;;;44.08;16.52;;;10.60;99.90;;;;;;5084197;28;20481;-69
2022/10/14 07:26:51;;;;;;;50.45;17.67;;;10.70;99.90;;;;;;5063800;28;20155;-70
2022/10/14 07:29:20;;;;;;;48.15;17.08;;;10.70;99.90;;;;;;5055797;28;20106;-71
2022/10/14 07:31:45;;;;;;;73.22;19.73;;;10.70;99.90;;;;;;5058923;28;20052;-70
2022/10/14 07:34:11;;;;;;;63.83;17.92;;;10.70;99.90;;;;;;5057009;28;20043;-71
2022/10/14 07:36:37;;;;;;;62.05;20.23;;;10.70;99.90;;;;;;5035123;28;20048;-70
2022/10/14 07:39:04;;;;;;;56.90;19.10;;;10.80;99.90;;;;;;5053455;28;20045;-71
2022/10/14 07:41:31;;;;;;;74.60;19.65;;;10.70;99.90;;;;;;5052781;28;20041;-70
2022/10/14 07:44:01;;;;;;;79.65;21.48;;;10.70;99.90;;;;;;5049270;28;21992;-69
2022/10/14 07:46:30;;;;;;;57.22;20.42;;;10.80;99.90;;;;;;5049791;28;20045;-70
2022/10/14 07:49:00;;;;;;;59.15;19.77;;;10.80;99.90;;;;;;5051579;28;20120;-69
2022/10/14 07:51:27;;;;;;;47.60;19.27;;;10.80;99.90;;;;;;5053576;28;20052;-70
2022/10/14 07:53:55;;;;;;;57.00;19.70;;;10.80;99.90;;;;;;5059700;28;20049;-70
2022/10/14 07:56:21;;;;;;;58.58;20.70;;;10.80;99.90;;;;;;5085144;27;20056;-70
2022/10/14 07:58:47;;;;;;;57.42;20.10;;;10.90;99.90;;;;;;5057655;28;20036;-70
2022/10/14 08:01:14;;;;;;;53.50;19.55;;;10.90;99.90;;;;;;5053575;28;20237;-71
2022/10/14 08:03:41;;;;;;;55.33;19.52;;;10.90;99.90;;;;;;5037173;28;20040;-70
2022/10/14 08:06:07;;;;;;;58.78;20.75;;;11.00;99.90;;;;;;5055299;28;20044;-70
2022/10/14 08:08:33;;;;;;;49.67;19.20;;;11.00;99.90;;;;;;5058538;28;20570;-70
2022/10/14 08:11:08;;;;;;;56.03;19.83;;;11.00;99.90;;;;;;5044779;28;20045;-70
2022/10/14 08:13:35;;;;;;;60.05;21.77;;;11.00;99.90;;;;;;5045407;28;20090;-70
2022/10/14 08:16:01;;;;;;;53.92;20.55;;;11.00;99.90;;;;;;5049216;28;20517;-70
2022/10/14 08:18:26;;;;;;;56.20;22.10;;;11.10;99.90;;;;;;5057154;28;20044;-69
2022/10/14 08:20:53;;;;;;;61.63;20.98;;;11.10;99.90;;;;;;5062147;28;20131;-69
2022/10/14 08:23:18;;;;;;;51.13;20.17;;;11.10;99.90;;;;;;5056624;28;20406;-69
2022/10/14 08:25:46;;;;;;;58.50;22.02;;;11.20;99.90;;;;;;5067377;28;20040;-70
2022/10/14 08:28:13;;;;;;;55.90;22.00;;;11.20;99.90;;;;;;5062036;28;20104;-70
2022/10/14 08:30:38;;;;;;;60.17;22.38;;;11.20;99.90;;;;;;5049295;28;20395;-70
2022/10/14 08:33:05;;;;;;;46.55;20.02;;;11.20;99.90;;;;;;5057285;28;20047;-70
2022/10/14 08:35:31;;;;;;;45.08;20.33;;;11.30;99.90;;;;;;5051562;28;20139;-70
2022/10/14 08:38:01;;;;;;;55.17;22.15;;;11.30;99.90;;;;;;5048252;28;20041;-70
2022/10/14 08:40:28;;;;;;;50.80;20.03;;;11.30;99.90;;;;;;5048063;28;20711;-70
2022/10/14 08:43:24;;;;;;;53.03;21.13;;;11.30;99.90;;;;;;5060823;28;20375;-70
2022/10/14 08:45:56;;;;;;;58.90;22.02;;;11.30;99.90;;;;;;5053908;28;20106;-69
2022/10/14 08:48:27;;;;;;;57.38;21.77;;;11.10;99.90;;;;;;5056985;28;20696;-69
2022/10/14 08:51:06;;;;;;;56.60;22.00;;;11.40;99.90;;;;;;5061543;28;20170;-69
2022/10/14 08:53:37;;;;;;;54.65;22.70;;;11.40;99.90;;;;;;5051049;28;20440;-69
2022/10/14 08:56:04;;;;;;;58.95;23.42;;;11.40;99.90;;;;;;5060972;28;20044;-69
2022/10/14 08:58:44;;;;;;;55.20;23.23;;;11.50;99.90;;;;;;5055081;28;20057;-69
2022/10/14 09:01:31;;;;;;;51.90;22.80;;;11.50;99.90;;;;;;5060715;28;20543;-69
2022/10/14 09:04:04;;;;;;;62.75;24.88;;;11.50;99.90;;;;;;5084506;28;20047;-69
2022/10/14 09:06:35;;;;;;;55.50;23.42;;;11.50;99.90;;;;;;5061033;28;20135;-69
2022/10/14 09:09:25;;;;;;;53.40;23.42;;;11.50;99.90;;;;;;5062426;28;20045;-70
2022/10/14 09:12:04;;;;;;;46.17;22.15;;;11.50;99.90;;;;;;5069640;28;20421;-70
2022/10/14 09:14:38;;;;;;;62.13;24.63;;;11.50;99.90;;;;;;5037822;28;20050;-69
2022/10/14 09:17:20;;;;;;;66.60;26.15;;;11.60;99.90;;;;;;5064322;28;20032;-69
2022/10/14 09:19:53;;;;;;;55.03;25.27;;;11.70;99.90;;;;;;5066556;28;20094;-69
2022/10/14 09:22:19;;;;;;;63.60;27.45;;;11.60;99.90;;;;;;5061848;28;20067;-70
2022/10/14 09:24:47;;;;;;;58.33;25.70;;;11.60;99.90;;;;;;5062508;28;20053;-69
2022/10/14 09:27:15;;;;;;;60.72;25.50;;;11.70;99.90;;;;;;5056493;28;20255;-70
2022/10/14 09:30:03;;;;;;;55.75;25.80;;;11.70;99.90;;;;;;5045160;28;20083;-69
2022/10/14 09:32:48;;;;;;;60.45;26.23;;;11.70;99.90;;;;;;5054518;28;20094;-70
2022/10/14 09:35:36;;;;;;;64.38;27.55;;;11.70;99.90;;;;;;5056493;28;20052;-70
2022/10/14 09:38:02;;;;;;;58.65;26.73;;;11.80;99.90;;;;;;5061513;28;20461;-69
2022/10/14 09:40:31;;;;;;;57.25;25.85;;;11.80;99.90;;;;;;5052929;28;20086;-69
2022/10/14 09:43:07;;;;;;;61.97;27.08;;;11.90;99.90;;;;;;5049589;28;20123;-70
2022/10/14 09:45:56;;;;;;;64.53;27.67;;;11.90;99.90;;;;;;5057556;28;20049;-69
2022/10/14 09:48:49;;;;;;;58.95;26.52;;;11.90;99.90;;;;;;5059479;28;20041;-69
2022/10/14 09:51:33;;;;;;;59.70;27.20;;;12.00;99.90;;;;;;5057010;28;20448;-69
2022/10/14 09:54:03;;;;;;;58.45;27.23;;;12.00;99.90;;;;;;5058482;28;20498;-69
2022/10/14 09:56:38;;;;;;;58.97;27.40;;;12.00;99.90;;;;;;5080062;28;20588;-69
2022/10/14 09:59:14;;;;;;;55.17;27.05;;;12.00;99.90;;;;;;5059788;28;20037;-69
2022/10/14 10:01:47;;;;;;;57.17;26.98;;;12.10;99.90;;;;;;5053720;28;20504;-69
2022/10/14 10:04:46;;;;;;;59.17;27.15;;;12.10;99.90;;;;;;5064734;28;20048;-70
2022/10/14 10:07:32;;;;;;;53.78;25.77;;;12.10;99.90;;;;;;5079225;28;20049;-69
2022/10/14 10:10:00;;;;;;;53.78;26.25;;;12.10;99.90;;;;;;5083734;28;20044;-69
2022/10/14 10:12:31;;;;;;;58.35;26.33;;;12.20;99.90;;;;;;5079781;28;20036;-70
2022/10/14 10:15:02;;;;;;;55.08;26.50;;;12.20;99.90;;;;;;5065091;28;20043;-70
2022/10/14 10:17:31;;;;;;;53.25;25.73;;;12.30;99.90;;;;;;5064404;28;20570;-70
2022/10/14 10:20:27;;;;;;;51.05;24.15;;;12.30;99.90;;;;;;5056317;28;20040;-70
2022/10/14 10:22:54;;;;;;;54.05;25.42;;;12.30;99.90;;;;;;5068349;28;20675;-69
2022/10/14 10:25:25;;;;;;;49.90;23.48;;;12.40;99.90;;;;;;5070634;28;20567;-70
2022/10/14 10:27:52;;;;;;;49.65;23.40;;;12.40;99.90;;;;;;5060567;28;20771;-70
2022/10/14 10:30:20;;;;;;;48.80;23.23;;;12.40;99.90;;;;;;5061869;28;20490;-70
2022/10/14 10:32:59;;;;;;;49.33;23.67;;;12.40;99.90;;;;;;5051852;28;20046;-70
2022/10/14 10:35:46;;;;;;;47.22;21.70;;;12.50;99.90;;;;;;5051659;28;20126;-70
2022/10/14 10:38:30;;;;;;;45.40;20.65;;;12.50;99.90;;;;;;5050258;28;20564;-70
2022/10/14 10:41:14;;;;;;;46.75;21.63;;;12.50;99.90;;;;;;5058038;28;20041;-70
2022/10/14 10:43:49;;;;;;;42.22;20.65;;;12.60;99.90;;;;;;5089488;28;20048;-70
2022/10/14 10:46:27;;;;;;;48.05;21.48;;;12.60;99.90;;;;;;5063298;28;20048;-69
2022/10/14 10:49:04;;;;;;;40.67;19.85;;;12.60;99.90;;;;;;5059488;28;20080;-70
2022/10/14 10:51:43;;;;;;;37.97;18.52;;;12.60;99.90;;;;;;5062327;28;20036;-70
2022/10/14 10:54:31;;;;;;;35.53;18.10;;;12.60;99.90;;;;;;5064478;28;20049;-70
2022/10/14 10:57:04;;;;;;;36.97;17.52;;;12.60;99.90;;;;;;5063944;28;20044;-69
2022/10/14 10:59:55;;;;;;;32.58;17.10;;;12.70;99.90;;;;;;5063483;28;20048;-69
2022/10/14 11:02:39;;;;;;;34.10;16.30;;;12.70;99.90;;;;;;5059310;28;20075;-69
2022/10/14 11:05:07;;;;;;;30.08;14.80;;;12.70;99.90;;;;;;5061525;28;20040;-70
2022/10/14 11:13:44;;;;;;;26.90;12.93;;;12.70;99.90;;;;;;5057935;28;20057;-71
2022/10/14 11:16:14;;;;;;;21.90;11.32;;;12.80;99.90;;;;;;5043146;28;20052;-70
2022/10/14 11:18:51;;;;;;;20.33;10.93;;;12.80;99.90;;;;;;5059026;28;20140;-70
2022/10/14 11:21:36;;;;;;;22.13;10.95;;;12.90;99.90;;;;;;5058961;28;20072;-70
2022/10/14 11:24:07;;;;;;;23.05;10.75;;;12.90;99.90;;;;;;5061853;28;20123;-70
2022/10/14 11:26:52;;;;;;;18.42;9.65;;;12.90;99.90;;;;;;5074484;28;20056;-70
2022/10/14 11:29:34;;;;;;;19.90;9.57;;;13.00;99.90;;;;;;5072504;28;20060;-69
2022/10/14 11:32:16;;;;;;;18.83;9.73;;;13.00;99.90;;;;;;5063952;28;20396;-70
2022/10/14 11:35:21;;;;;;;19.48;8.65;;;13.00;99.90;;;;;;5064790;28;20048;-70
2022/10/14 11:38:14;;;;;;;19.20;8.75;;;13.00;99.90;;;;;;5062875;28;20079;-70
2022/10/14 11:41:07;;;;;;;17.48;8.93;;;13.10;99.90;;;;;;5062832;28;20040;-70
2022/10/14 11:44:05;;;;;;;17.83;8.85;;;13.10;99.90;;;;;;5069983;28;20051;-70
2022/10/14 11:46:39;;;;;;;17.27;9.10;;;13.20;99.90;;;;;;5077167;28;20044;-70
2022/10/14 11:49:26;;;;;;;20.60;10.13;;;13.20;99.90;;;;;;5070484;28;20045;-70
2022/10/14 11:52:05;;;;;;;15.65;8.45;;;13.20;99.90;;;;;;5065320;28;20584;-70
2022/10/14 11:54:46;;;;;;;15.85;8.52;;;13.30;99.90;;;;;;5086472;28;20037;-70
2022/10/14 11:57:26;;;;;;;17.65;8.88;;;13.30;99.90;;;;;;5062418;28;20040;-70
2022/10/14 11:59:58;;;;;;;18.55;9.02;;;13.30;99.90;;;;;;5061395;28;20131;-70
2022/10/14 12:02:38;;;;;;;14.77;7.65;;;13.30;99.90;;;;;;5065689;28;20049;-70
2022/10/14 12:05:19;;;;;;;16.92;8.13;;;13.30;99.90;;;;;;5047928;28;20048;-70
2022/10/14 12:07:55;;;;;;;13.70;7.03;;;13.30;99.90;;;;;;5066774;28;20036;-70
2022/10/14 12:10:26;;;;;;;15.88;7.55;;;13.30;99.90;;;;;;5074172;28;20443;-70
2022/10/14 12:12:53;;;;;;;;;;;13.30;99.90;;;;;;5064172;28;20072;-70
2022/10/14 12:15:21;;;;;;;15.38;8.38;;;13.30;99.90;;;;;;5056712;28;19924;-70
2022/10/14 12:17:57;;;;;;;14.68;7.57;;;13.30;99.90;;;;;;5059128;28;20398;-70
2022/10/14 12:20:33;;;;;;;14.50;7.30;;;13.30;99.90;;;;;;5050476;28;20048;-70
2022/10/14 12:23:01;;;;;;;15.85;8.23;;;13.30;99.90;;;;;;5066472;28;20068;-70
2022/10/14 12:25:35;;;;;;;17.20;8.65;;;13.30;99.90;;;;;;5048261;28;20044;-71
2022/10/14 12:28:02;;;;;;;16.00;7.85;;;13.30;99.90;;;;;;5058200;28;20102;-70
2022/10/14 12:30:32;;;;;;;16.63;8.75;;;13.30;99.90;;;;;;5059088;28;20051;-71
2022/10/14 12:33:00;;;;;;;15.35;8.15;;;13.30;99.90;;;;;;5063396;28;20447;-71
2022/10/14 12:35:47;;;;;;;15.70;8.35;;;13.30;99.90;;;;;;5061411;28;20105;-70
2022/10/14 12:38:13;;;;;;;15.73;8.23;;;13.30;99.90;;;;;;5063247;28;20051;-71
2022/10/14 12:40:39;;;;;;;14.90;7.80;;;13.30;99.90;;;;;;5060955;28;20041;-70
2022/10/14 12:43:26;;;;;;;15.90;8.05;;;13.40;99.90;;;;;;5067512;28;20032;-70
2022/10/14 12:46:13;;;;;;;16.65;8.95;;;13.30;99.90;;;;;;5077980;28;20082;-70
2022/10/14 12:48:49;;;;;;;14.80;7.90;;;13.40;99.90;;;;;;5073700;28;20067;-70
2022/10/14 12:51:19;;;;;;;16.13;8.07;;;13.40;99.90;;;;;;5048641;28;20080;-70
2022/10/14 12:54:14;;;;;;;13.77;7.75;;;13.40;99.90;;;;;;5067815;28;20068;-71
2022/10/14 12:57:15;;;;;;;15.70;7.90;;;13.40;99.90;;;;;;5070701;28;20048;-71